Time;durP1;ratioP1;P1;durP2;ratioP2;P2;SDS_P1;SDS_P2;PMS_P1;PMS_P2;Temp;Humidity;BMP_temperature;BMP_pressure;BME280_temperature;BME280_humidity;BME280_pressure;Samples;Min_cycle;Max_cycle;Signal;HPM_P1;HPM_P2
2022/06/06 00:00:01;;;;;;;4.22;3.75;;;13.10;99.90;;;;;;5090177;28;20024;-70
2022/06/06 00:02:29;;;;;;;5.25;4.70;;;13.10;99.90;;;;;;5104898;28;20366;-70
2022/06/06 00:04:56;;;;;;;6.97;5.80;;;13.00;99.90;;;;;;5104683;28;20028;-70
2022/06/06 00:07:22;;;;;;;7.57;5.70;;;12.90;99.90;;;;;;5084618;28;20128;-70
2022/06/06 00:09:47;;;;;;;7.60;6.00;;;12.90;99.90;;;;;;5085178;28;20247;-69
2022/06/06 00:12:15;;;;;;;7.13;6.20;;;12.80;99.90;;;;;;5085230;28;20028;-69
2022/06/06 00:14:42;;;;;;;6.90;6.13;;;12.90;99.90;;;;;;5084391;28;20215;-69
2022/06/06 00:17:08;;;;;;;7.78;6.25;;;13.00;99.90;;;;;;5085877;28;20024;-69
2022/06/06 00:19:33;;;;;;;6.97;5.78;;;13.00;99.90;;;;;;5085168;28;20028;-69
2022/06/06 00:21:59;;;;;;;7.00;5.82;;;12.90;99.90;;;;;;5085532;28;20048;-69
2022/06/06 00:24:25;;;;;;;9.57;7.18;;;13.00;99.90;;;;;;5084197;28;20025;-69
2022/06/06 00:26:51;;;;;;;7.45;6.05;;;13.00;99.90;;;;;;5107486;28;20030;-69
2022/06/06 00:29:19;;;;;;;9.70;7.57;;;12.90;99.90;;;;;;5107692;28;20015;-68
2022/06/06 00:37:21;;;;;;;9.95;7.00;;;13.00;99.90;;;;;;5124229;28;20176;-70
2022/06/06 00:39:47;;;;;;;11.38;7.43;;;13.00;99.90;;;;;;5124384;28;20027;-69
2022/06/06 00:42:21;;;;;;;9.80;7.53;;;13.00;99.90;;;;;;5124104;28;20245;-70
2022/06/06 00:44:47;;;;;;;11.23;8.20;;;13.00;99.90;;;;;;5107339;28;20078;-70
2022/06/06 00:47:25;;;;;;;12.70;8.48;;;13.00;99.90;;;;;;5113915;28;20046;-70
2022/06/06 00:49:55;;;;;;;16.52;9.43;;;13.00;99.90;;;;;;5103209;28;20211;-69
2022/06/06 00:52:26;;;;;;;11.80;8.52;;;12.90;99.90;;;;;;5087357;28;20027;-70
2022/06/06 00:54:58;;;;;;;12.02;8.98;;;12.90;99.90;;;;;;5084885;28;20059;-69
2022/06/06 00:57:29;;;;;;;14.93;9.20;;;12.90;99.90;;;;;;5104337;28;20077;-70
2022/06/06 00:59:55;;;;;;;13.65;9.45;;;12.90;99.90;;;;;;5103736;28;20031;-68
2022/06/06 01:02:22;;;;;;;14.57;9.55;;;12.90;99.90;;;;;;5086297;28;20100;-69
2022/06/06 01:04:48;;;;;;;14.80;9.77;;;12.90;99.90;;;;;;5103275;28;20311;-70
2022/06/06 01:07:14;;;;;;;17.20;10.23;;;12.90;99.90;;;;;;5101850;28;20028;-70
2022/06/06 01:09:42;;;;;;;16.38;9.70;;;12.90;99.90;;;;;;5082755;28;20032;-70
2022/06/06 01:12:12;;;;;;;14.35;9.70;;;12.90;99.90;;;;;;5081455;28;20272;-69
2022/06/06 01:14:44;;;;;;;17.65;10.57;;;13.00;99.90;;;;;;5082831;28;20040;-69
2022/06/06 01:17:49;;;;;;;14.68;8.98;;;12.90;99.90;;;;;;5082577;28;20073;-70
2022/06/06 01:20:34;;;;;;;16.27;10.00;;;13.00;99.90;;;;;;5082642;28;20040;-70
2022/06/06 01:23:38;;;;;;;14.88;9.05;;;13.00;99.90;;;;;;5082952;28;20107;-68
2022/06/06 01:26:33;;;;;;;17.95;9.68;;;13.00;99.90;;;;;;5087929;28;20020;-68
2022/06/06 01:29:11;;;;;;;13.27;9.38;;;13.00;99.90;;;;;;5103089;28;20024;-70
2022/06/06 01:31:48;;;;;;;12.45;8.98;;;13.10;99.90;;;;;;5103825;28;20334;-69
2022/06/06 01:34:22;;;;;;;14.70;8.98;;;13.10;99.90;;;;;;5102404;28;20016;-70
2022/06/06 01:36:50;;;;;;;9.35;7.22;;;13.00;99.90;;;;;;5103896;28;20249;-70
2022/06/06 01:39:16;;;;;;;8.68;6.78;;;13.00;99.90;;;;;;5103075;28;20026;-70
2022/06/06 01:42:07;;;;;;;12.25;8.32;;;13.00;99.90;;;;;;5085535;28;20020;-70
2022/06/06 01:44:56;;;;;;;13.52;8.30;;;13.00;99.90;;;;;;5088771;28;20099;-69
2022/06/06 01:47:28;;;;;;;13.55;8.93;;;12.90;99.90;;;;;;5102302;28;20031;-68
2022/06/06 01:49:58;;;;;;;10.38;7.53;;;12.90;99.90;;;;;;5103511;28;20047;-70
2022/06/06 01:52:24;;;;;;;11.05;6.80;;;12.90;99.90;;;;;;5102653;28;20027;-69
2022/06/06 01:54:56;;;;;;;13.30;7.55;;;12.80;99.90;;;;;;5103087;28;20124;-70
2022/06/06 01:57:23;;;;;;;9.48;6.72;;;12.80;99.90;;;;;;5064062;28;20073;-70
2022/06/06 01:59:51;;;;;;;12.07;6.72;;;12.70;99.90;;;;;;5065532;28;20024;-70
2022/06/06 02:02:17;;;;;;;12.15;8.13;;;12.70;99.90;;;;;;5082230;28;20049;-70
2022/06/06 02:04:43;;;;;;;10.70;6.68;;;12.70;99.90;;;;;;5083167;28;20316;-70
2022/06/06 02:07:09;;;;;;;9.20;6.60;;;12.60;99.90;;;;;;5066831;28;20024;-70
2022/06/06 02:09:34;;;;;;;10.65;6.50;;;12.60;99.90;;;;;;5102545;28;20020;-69
2022/06/06 02:12:01;;;;;;;9.02;6.85;;;12.60;99.90;;;;;;5102097;28;20019;-70
2022/06/06 02:14:27;;;;;;;9.32;6.28;;;12.50;99.90;;;;;;5102316;28;20035;-70
2022/06/06 02:16:53;;;;;;;10.45;6.05;;;12.50;99.90;;;;;;5102034;28;20031;-70
2022/06/06 02:19:18;;;;;;;9.52;6.55;;;12.50;99.90;;;;;;5103252;28;20020;-70
2022/06/06 02:21:44;;;;;;;9.75;6.78;;;12.60;99.90;;;;;;5102468;28;20107;-70
2022/06/06 02:24:10;;;;;;;8.75;5.93;;;12.70;99.90;;;;;;5107115;28;20115;-70
2022/06/06 02:26:35;;;;;;;6.95;5.05;;;12.80;99.90;;;;;;5116936;28;20346;-70
2022/06/06 02:29:02;;;;;;;5.95;5.20;;;12.70;99.90;;;;;;5126706;28;20027;-69
2022/06/06 02:31:28;;;;;;;5.43;4.47;;;12.60;99.90;;;;;;5126688;28;20023;-70
2022/06/06 02:33:54;;;;;;;7.50;5.20;;;12.50;99.90;;;;;;5109664;28;20061;-70
2022/06/06 02:36:19;;;;;;;5.43;4.72;;;12.60;99.90;;;;;;5126825;28;20063;-69
2022/06/06 02:38:45;;;;;;;6.75;4.50;;;12.50;99.90;;;;;;5126347;28;20011;-70
2022/06/06 02:41:11;;;;;;;7.05;4.75;;;12.60;99.90;;;;;;5126086;28;20028;-70
2022/06/06 02:43:40;;;;;;;4.95;4.53;;;12.60;99.90;;;;;;5127795;28;20254;-70
2022/06/06 02:46:08;;;;;;;4.63;3.90;;;12.70;99.90;;;;;;5124852;28;20238;-70
2022/06/06 02:48:34;;;;;;;4.40;4.00;;;12.70;99.90;;;;;;5106781;28;20016;-70
2022/06/06 02:51:00;;;;;;;4.30;3.90;;;12.70;99.90;;;;;;5106924;28;20219;-70
2022/06/06 02:53:26;;;;;;;4.13;3.72;;;12.70;99.90;;;;;;5106739;28;20341;-70
2022/06/06 02:55:54;;;;;;;4.40;3.85;;;12.80;99.90;;;;;;5105834;28;20079;-70
2022/06/06 02:58:21;;;;;;;4.38;3.97;;;12.90;99.90;;;;;;5086756;28;20034;-70
2022/06/06 03:00:48;;;;;;;5.85;4.63;;;12.90;99.90;;;;;;5106642;28;20084;-70
2022/06/06 03:03:14;;;;;;;7.53;4.75;;;13.00;99.90;;;;;;5088203;28;20023;-70
2022/06/06 03:05:54;;;;;;;4.93;4.43;;;13.00;99.90;;;;;;5105956;28;20031;-70
2022/06/06 03:08:59;;;;;;;5.10;4.53;;;13.00;99.90;;;;;;5085113;28;20016;-70
2022/06/06 03:11:58;;;;;;;5.53;4.53;;;13.00;99.90;;;;;;5074162;28;20028;-70
2022/06/06 03:14:53;;;;;;;6.75;5.22;;;12.90;99.90;;;;;;5056310;28;20020;-70
2022/06/06 03:20:46;;;;;;;4.30;3.90;;;13.00;99.90;;;;;;5074784;28;20020;-70
2022/06/06 03:23:51;;;;;;;4.38;3.83;;;13.10;99.90;;;;;;5085137;28;20028;-70
2022/06/06 03:26:51;;;;;;;4.53;4.13;;;13.10;99.90;;;;;;5073826;28;20088;-70
2022/06/06 03:29:31;;;;;;;5.00;4.50;;;13.10;99.90;;;;;;5099010;28;20047;-70
2022/06/06 03:32:36;;;;;;;4.75;4.25;;;13.20;99.90;;;;;;5086168;28;20023;-70
2022/06/06 03:35:23;;;;;;;4.35;3.95;;;13.20;99.90;;;;;;5095457;28;20311;-70
2022/06/06 03:38:23;;;;;;;5.30;4.18;;;13.20;99.90;;;;;;5100665;28;20025;-70
2022/06/06 03:41:24;;;;;;;5.35;4.35;;;13.20;99.90;;;;;;5079325;28;20020;-70
2022/06/06 03:44:12;;;;;;;3.80;3.50;;;13.20;99.90;;;;;;5084773;28;20069;-70
2022/06/06 03:47:17;;;;;;;4.13;3.60;;;13.10;99.90;;;;;;5091812;28;20099;-70
2022/06/06 03:50:12;;;;;;;4.40;3.92;;;13.10;99.90;;;;;;5079226;28;20091;-70
2022/06/06 03:52:47;;;;;;;2.40;2.20;;;13.10;99.90;;;;;;5105137;28;20020;-70
2022/06/06 03:55:41;;;;;;;1.88;1.77;;;13.10;99.90;;;;;;5104785;28;20036;-70
2022/06/06 03:58:10;;;;;;;2.92;2.63;;;13.00;99.90;;;;;;5083265;28;20024;-70
2022/06/06 04:00:38;;;;;;;2.92;2.65;;;12.90;99.90;;;;;;5083597;28;20040;-70
2022/06/06 04:03:05;;;;;;;3.30;2.90;;;12.90;99.90;;;;;;5084270;28;20202;-69
2022/06/06 04:05:34;;;;;;;3.33;2.60;;;13.00;99.90;;;;;;5084562;28;20027;-70
2022/06/06 04:08:00;;;;;;;3.95;2.97;;;12.90;99.90;;;;;;5089430;28;20033;-70
2022/06/06 04:10:33;;;;;;;3.80;3.40;;;12.80;99.90;;;;;;5083809;28;20021;-70
2022/06/06 04:13:34;;;;;;;3.25;2.95;;;12.80;99.90;;;;;;5068147;28;20048;-70
2022/06/06 04:16:19;;;;;;;2.70;2.50;;;12.80;99.90;;;;;;5084539;28;20077;-70
2022/06/06 04:18:58;;;;;;;3.28;1.90;;;12.80;99.90;;;;;;5068424;28;20021;-67
2022/06/06 04:21:43;;;;;;;2.33;2.13;;;12.70;99.90;;;;;;5067311;28;20096;-68
2022/06/06 04:24:50;;;;;;;2.85;2.50;;;12.80;99.90;;;;;;5084059;28;20025;-68
2022/06/06 04:27:38;;;;;;;2.97;2.67;;;12.70;99.90;;;;;;5104508;28;20028;-68
2022/06/06 04:30:26;;;;;;;3.08;2.78;;;12.70;99.90;;;;;;5104803;28;20016;-68
2022/06/06 04:33:13;;;;;;;3.65;2.72;;;12.70;99.90;;;;;;5103579;28;20285;-68
2022/06/06 04:36:11;;;;;;;2.20;2.10;;;12.70;99.90;;;;;;5103726;28;20035;-68
2022/06/06 04:39:02;;;;;;;2.60;2.40;;;12.80;99.90;;;;;;5103924;28;20211;-68
2022/06/06 04:41:37;;;;;;;2.50;2.30;;;12.80;99.90;;;;;;5103852;28;20306;-68
2022/06/06 04:44:34;;;;;;;3.63;2.78;;;12.80;99.90;;;;;;5105030;28;20034;-68
2022/06/06 04:47:12;;;;;;;5.78;3.10;;;12.80;99.90;;;;;;5103376;28;20323;-68
2022/06/06 04:49:39;;;;;;;2.97;2.78;;;12.80;99.90;;;;;;5103315;28;20016;-68
2022/06/06 04:52:05;;;;;;;4.95;3.78;;;12.80;99.90;;;;;;5102973;28;20027;-68
2022/06/06 04:54:33;;;;;;;3.25;2.95;;;12.80;99.90;;;;;;5103282;28;20044;-68
2022/06/06 04:57:01;;;;;;;4.47;2.90;;;12.80;99.90;;;;;;5104733;28;20196;-68
2022/06/06 04:59:29;;;;;;;3.17;2.90;;;12.80;99.90;;;;;;5102752;28;20044;-68
2022/06/06 05:01:58;;;;;;;3.75;3.45;;;12.80;99.90;;;;;;5103696;28;20318;-68
2022/06/06 05:04:24;;;;;;;3.75;3.35;;;12.90;99.90;;;;;;5086681;28;20023;-68
2022/06/06 05:07:16;;;;;;;3.58;3.28;;;12.90;99.90;;;;;;5103674;28;20024;-68
2022/06/06 05:10:04;;;;;;;3.00;2.70;;;12.90;99.90;;;;;;5082936;28;20032;-68
2022/06/06 05:13:10;;;;;;;2.75;2.55;;;12.90;99.90;;;;;;5067276;28;20020;-68
2022/06/06 05:16:04;;;;;;;6.22;3.65;;;12.90;99.90;;;;;;5071959;28;20024;-68
2022/06/06 05:19:01;;;;;;;5.20;3.50;;;13.00;99.90;;;;;;5070066;28;20048;-68
2022/06/06 05:21:56;;;;;;;6.25;3.90;;;13.00;99.90;;;;;;5070148;28;20032;-68
2022/06/06 05:24:52;;;;;;;3.85;3.30;;;13.00;99.90;;;;;;5083898;28;20028;-68
2022/06/06 05:27:47;;;;;;;6.35;4.13;;;13.00;99.90;;;;;;5099949;28;20027;-68
2022/06/06 05:30:45;;;;;;;4.25;3.63;;;13.00;99.90;;;;;;5109899;28;20091;-68
2022/06/06 05:33:21;;;;;;;4.63;4.13;;;13.00;99.90;;;;;;5123191;28;20019;-68
2022/06/06 05:36:16;;;;;;;5.18;4.47;;;13.00;99.90;;;;;;5123736;28;20032;-68
2022/06/06 05:39:01;;;;;;;4.68;4.18;;;13.10;99.90;;;;;;5108504;28;20020;-68
2022/06/06 05:42:07;;;;;;;6.47;4.30;;;13.10;99.90;;;;;;5105696;28;20016;-68
2022/06/06 05:45:05;;;;;;;5.22;4.18;;;13.10;99.90;;;;;;5096539;28;20068;-69
2022/06/06 05:48:10;;;;;;;5.22;4.00;;;13.10;99.90;;;;;;5109288;28;20020;-69
2022/06/06 05:51:03;;;;;;;6.70;4.38;;;13.20;99.90;;;;;;5090542;28;20024;-69
2022/06/06 05:53:55;;;;;;;5.82;4.07;;;13.20;99.90;;;;;;5101290;28;20062;-69
2022/06/06 05:56:44;;;;;;;5.72;4.93;;;13.20;99.90;;;;;;5103122;28;20032;-69
2022/06/06 05:59:43;;;;;;;4.78;4.20;;;13.20;99.90;;;;;;5101485;28;20028;-68
2022/06/06 06:02:43;;;;;;;5.80;4.45;;;13.20;99.90;;;;;;5101955;28;20012;-69
2022/06/06 06:05:33;;;;;;;5.30;4.80;;;13.20;99.90;;;;;;5102271;28;20027;-68
2022/06/06 06:08:16;;;;;;;5.50;4.68;;;13.30;99.90;;;;;;5083932;28;20461;-68
2022/06/06 06:11:21;;;;;;;6.78;4.63;;;13.30;99.90;;;;;;5082181;28;20023;-68
2022/06/06 06:14:12;;;;;;;5.10;4.60;;;13.40;99.90;;;;;;5070972;28;20075;-69
2022/06/06 06:16:44;;;;;;;5.33;4.67;;;13.50;99.90;;;;;;5081626;28;20036;-69
2022/06/06 06:19:14;;;;;;;7.18;4.32;;;13.70;99.90;;;;;;5081750;28;20020;-69
2022/06/06 06:21:46;;;;;;;4.70;4.30;;;13.70;99.90;;;;;;5065626;28;20126;-69
2022/06/06 06:24:18;;;;;;;6.32;4.50;;;13.70;99.90;;;;;;5082248;28;20026;-69
2022/06/06 06:26:45;;;;;;;6.97;4.85;;;13.60;99.90;;;;;;5093988;28;20032;-70
2022/06/06 06:29:11;;;;;;;5.47;4.93;;;13.60;99.90;;;;;;5103276;28;20394;-71
2022/06/06 06:32:17;;;;;;;9.63;5.30;;;13.60;99.90;;;;;;5101612;28;20215;-70
2022/06/06 06:35:22;;;;;;;4.95;4.50;;;13.50;99.90;;;;;;5087679;28;20051;-70
2022/06/06 06:38:19;;;;;;;6.00;4.60;;;13.50;99.90;;;;;;5102534;28;20291;-69
2022/06/06 06:40:53;;;;;;;4.10;3.70;;;13.30;99.90;;;;;;5089186;28;20065;-69
2022/06/06 06:43:59;;;;;;;5.30;3.90;;;13.20;99.90;;;;;;5103178;28;20026;-70
2022/06/06 06:46:33;;;;;;;5.13;3.50;;;13.20;99.90;;;;;;5087240;28;20047;-72
2022/06/06 06:49:36;;;;;;;4.78;3.13;;;13.20;99.90;;;;;;5103175;28;20012;-69
2022/06/06 06:52:39;;;;;;;4.10;3.78;;;13.20;99.90;;;;;;5089860;28;20016;-68
2022/06/06 06:55:29;;;;;;;4.15;3.55;;;13.30;99.90;;;;;;5087638;28;20174;-69
2022/06/06 06:58:34;;;;;;;5.18;4.00;;;13.40;99.90;;;;;;5081941;28;20312;-67
2022/06/06 07:01:05;;;;;;;4.57;3.90;;;13.50;99.90;;;;;;5079764;28;20024;-70
2022/06/06 07:10:15;;;;;;;5.57;4.72;;;13.80;99.90;;;;;;5096338;28;20027;-69
2022/06/06 07:13:04;;;;;;;11.23;5.63;;;13.80;99.90;;;;;;5125475;28;20334;-69
2022/06/06 07:15:44;;;;;;;7.55;5.60;;;13.80;99.90;;;;;;5126600;28;20042;-70
2022/06/06 07:18:13;;;;;;;14.13;7.35;;;13.90;99.90;;;;;;5106004;28;20065;-69
2022/06/06 07:20:42;;;;;;;9.73;7.45;;;13.80;99.90;;;;;;5104970;28;20027;-69
2022/06/06 07:23:11;;;;;;;11.40;8.02;;;13.60;99.90;;;;;;5104097;28;20083;-68
2022/06/06 07:25:48;;;;;;;9.25;7.13;;;13.60;99.90;;;;;;5104366;28;20044;-69
2022/06/06 07:28:17;;;;;;;8.48;6.38;;;13.60;99.90;;;;;;5104517;28;20388;-69
2022/06/06 07:30:56;;;;;;;8.48;6.20;;;13.60;99.90;;;;;;5070485;28;20028;-69
2022/06/06 07:33:51;;;;;;;8.13;5.95;;;13.60;99.90;;;;;;5088720;28;20073;-69
2022/06/06 07:36:51;;;;;;;7.80;6.38;;;13.60;99.90;;;;;;5104690;28;20215;-68
2022/06/06 07:39:34;;;;;;;7.90;5.80;;;13.60;99.90;;;;;;5098644;28;20057;-68
2022/06/06 07:42:19;;;;;;;9.10;6.25;;;13.70;99.90;;;;;;5104732;28;20031;-68
2022/06/06 07:45:09;;;;;;;13.48;6.65;;;13.70;99.90;;;;;;5103244;28;20020;-68
2022/06/06 07:48:14;;;;;;;9.68;6.60;;;13.80;99.90;;;;;;5103530;28;20133;-69
2022/06/06 07:51:06;;;;;;;26.35;6.75;;;14.00;99.90;;;;;;5078704;28;20027;-68
2022/06/06 07:53:59;;;;;;;26.02;7.43;;;14.20;99.90;;;;;;5104024;28;20048;-68
2022/06/06 07:56:40;;;;;;;14.20;6.10;;;14.40;99.90;;;;;;5104109;28;20036;-69
2022/06/06 07:59:38;;;;;;;10.15;6.15;;;14.40;99.90;;;;;;5103705;28;20020;-68
2022/06/06 08:02:40;;;;;;;6.53;5.22;;;14.50;99.90;;;;;;5102199;28;20024;-69
2022/06/06 08:05:41;;;;;;;9.65;5.03;;;14.80;99.90;;;;;;5088848;28;20028;-69
2022/06/06 08:08:32;;;;;;;9.85;5.25;;;15.00;99.90;;;;;;5087159;28;20028;-69
2022/06/06 08:11:09;;;;;;;8.07;5.53;;;15.30;99.90;;;;;;5081655;28;20342;-69
2022/06/06 08:14:07;;;;;;;6.45;5.22;;;15.40;99.90;;;;;;5083280;28;20028;-67
2022/06/06 08:16:54;;;;;;;7.57;4.88;;;15.60;99.90;;;;;;5083838;28;20024;-69
2022/06/06 08:19:50;;;;;;;5.05;3.97;;;15.70;99.90;;;;;;5101040;28;20043;-68
2022/06/06 08:22:16;;;;;;;8.90;4.80;;;16.00;99.90;;;;;;5102909;28;20027;-68
2022/06/06 08:24:47;;;;;;;4.90;4.38;;;16.10;99.90;;;;;;5102311;28;20031;-69
2022/06/06 08:27:16;;;;;;;6.83;4.90;;;16.10;99.90;;;;;;5104822;28;20203;-69
2022/06/06 08:29:44;;;;;;;7.75;5.53;;;16.10;99.90;;;;;;5103864;28;20020;-69
2022/06/06 08:32:11;;;;;;;9.60;4.72;;;16.30;99.90;;;;;;5086823;28;20249;-69
2022/06/06 08:34:37;;;;;;;9.77;4.95;;;16.30;99.90;;;;;;5102897;28;20020;-69
2022/06/06 08:37:35;;;;;;;7.43;5.18;;;16.50;99.90;;;;;;5104946;28;20043;-69
2022/06/06 08:40:40;;;;;;;13.65;6.10;;;16.90;99.90;;;;;;5103566;28;20023;-69
2022/06/06 08:43:18;;;;;;;12.80;6.22;;;17.00;99.90;;;;;;5092286;28;20210;-70
2022/06/06 08:45:56;;;;;;;7.57;6.18;;;17.20;99.90;;;;;;5103476;28;20257;-70
2022/06/06 08:48:41;;;;;;;10.40;6.18;;;17.30;99.90;;;;;;5067132;28;20279;-68
2022/06/06 08:51:47;;;;;;;11.80;6.35;;;17.70;99.90;;;;;;5083904;28;20071;-69
2022/06/06 08:54:44;;;;;;;13.07;5.85;;;18.20;99.90;;;;;;5068438;28;20131;-69
2022/06/06 08:57:40;;;;;;;11.95;6.00;;;18.70;99.70;;;;;;5083621;28;20100;-72
2022/06/06 09:00:22;;;;;;;9.80;5.53;;;19.00;99.20;;;;;;5103331;28;20039;-70
2022/06/06 09:03:12;;;;;;;10.30;5.63;;;19.10;98.80;;;;;;5102243;28;20034;-69
2022/06/06 09:06:18;;;;;;;10.65;6.05;;;19.00;99.00;;;;;;5102735;28;20023;-68
2022/06/06 09:09:20;;;;;;;10.27;6.22;;;18.80;99.00;;;;;;5092100;28;20030;-69
2022/06/06 09:12:18;;;;;;;10.48;5.88;;;18.40;99.60;;;;;;5102544;28;20039;-70
2022/06/06 09:15:17;;;;;;;10.70;5.45;;;18.20;99.90;;;;;;5089814;28;20035;-70
2022/06/06 09:18:15;;;;;;;9.85;6.53;;;17.90;99.90;;;;;;5102666;28;20030;-69
2022/06/06 09:21:20;;;;;;;7.35;5.90;;;17.60;99.90;;;;;;5103012;28;20027;-73
2022/06/06 09:24:27;;;;;;;9.52;6.78;;;17.10;99.90;;;;;;5102558;28;20087;-71
2022/06/06 09:27:22;;;;;;;11.38;6.63;;;16.60;99.90;;;;;;5100569;28;20218;-70
2022/06/06 09:30:21;;;;;;;9.10;6.20;;;16.40;99.90;;;;;;5123101;28;20256;-73
2022/06/06 09:33:25;;;;;;;8.73;6.38;;;16.40;99.90;;;;;;5109559;28;20194;-69
2022/06/06 09:36:30;;;;;;;10.65;6.10;;;16.30;99.90;;;;;;5102212;28;20020;-70
2022/06/06 09:39:09;;;;;;;9.85;7.60;;;16.10;99.90;;;;;;5090517;28;20012;-71
2022/06/06 09:42:15;;;;;;;12.85;8.10;;;16.00;99.90;;;;;;5101893;28;20069;-70
2022/06/06 09:45:19;;;;;;;10.32;7.93;;;15.80;99.90;;;;;;5076754;28;20105;-70
2022/06/06 09:48:17;;;;;;;13.70;7.63;;;15.80;99.90;;;;;;5102159;28;20274;-70
2022/06/06 09:51:15;;;;;;;11.45;7.82;;;15.90;99.90;;;;;;5102006;28;20012;-70
2022/06/06 10:00:31;;;;;;;11.80;8.50;;;15.90;99.90;;;;;;5081548;28;20029;-70
2022/06/06 10:03:34;;;;;;;14.13;8.70;;;15.90;99.90;;;;;;5080873;28;20071;-71
2022/06/06 10:06:31;;;;;;;14.55;7.50;;;15.90;99.90;;;;;;5101000;28;20311;-70
2022/06/06 10:09:37;;;;;;;16.00;8.38;;;16.10;99.90;;;;;;5085184;28;20091;-70
2022/06/06 10:12:42;;;;;;;10.93;6.45;;;16.30;99.90;;;;;;5070449;28;20070;-70
2022/06/06 10:15:21;;;;;;;12.43;6.32;;;17.00;99.90;;;;;;5072854;28;20032;-70
2022/06/06 10:18:10;;;;;;;8.50;5.95;;;17.50;99.90;;;;;;5082866;28;20378;-70
2022/06/06 10:21:16;;;;;;;8.00;5.15;;;18.10;99.90;;;;;;5081832;28;20283;-71
2022/06/06 10:24:04;;;;;;;7.90;5.22;;;18.60;99.90;;;;;;5073087;28;20024;-69
2022/06/06 10:27:03;;;;;;;8.10;3.88;;;18.90;99.90;;;;;;5099927;28;20043;-71
2022/06/06 10:30:12;;;;;;;9.13;4.30;;;19.10;99.90;;;;;;5122142;28;20051;-72
2022/06/06 10:33:17;;;;;;;5.88;3.90;;;18.90;99.20;;;;;;5084496;28;20146;-71
2022/06/06 10:36:23;;;;;;;10.63;5.28;;;18.60;99.90;;;;;;5081156;28;20058;-72
2022/06/06 10:39:15;;;;;;;8.15;4.50;;;18.30;99.90;;;;;;5081425;28;20068;-69
2022/06/06 10:42:03;;;;;;;6.60;4.30;;;18.00;99.90;;;;;;5081730;28;20024;-70
2022/06/06 10:44:56;;;;;;;10.23;4.97;;;17.60;99.90;;;;;;5084077;28;20036;-70
2022/06/06 10:47:49;;;;;;;9.38;5.03;;;17.40;99.90;;;;;;5097861;28;20032;-71
2022/06/06 10:54:14;;;;;;;6.88;5.03;;;17.20;99.90;;;;;;5085415;28;20051;-71
2022/06/06 10:57:20;;;;;;;9.45;5.30;;;17.20;99.90;;;;;;5105280;28;20024;-70
2022/06/06 11:00:26;;;;;;;7.57;5.20;;;17.20;99.90;;;;;;5090974;28;20223;-71
2022/06/06 11:03:32;;;;;;;8.63;5.20;;;17.30;99.90;;;;;;5089942;28;20019;-70
2022/06/06 11:06:37;;;;;;;5.30;4.68;;;17.40;99.90;;;;;;5090585;28;20032;-70
2022/06/06 11:09:32;;;;;;;7.57;4.43;;;17.60;99.90;;;;;;5087658;28;20028;-69
2022/06/06 11:12:35;;;;;;;6.70;4.15;;;17.80;99.90;;;;;;5084589;28;20091;-70
2022/06/06 11:15:03;;;;;;;5.85;4.30;;;18.00;99.90;;;;;;5084393;28;20035;-68
2022/06/06 11:18:05;;;;;;;20.63;6.13;;;18.10;99.90;;;;;;5085624;28;20035;-70
2022/06/06 11:21:11;;;;;;;7.75;3.97;;;18.10;99.90;;;;;;5084803;28;20025;-73
2022/06/06 11:23:47;;;;;;;8.05;4.40;;;18.10;99.90;;;;;;5084394;28;20092;-71
2022/06/06 11:26:52;;;;;;;6.38;4.03;;;18.30;99.90;;;;;;5079770;28;20023;-71
2022/06/06 11:29:51;;;;;;;5.38;3.95;;;18.50;99.30;;;;;;5113522;28;20028;-71
2022/06/06 11:32:57;;;;;;;6.25;4.03;;;18.80;98.90;;;;;;5124802;28;20099;-70
2022/06/06 11:35:40;;;;;;;10.45;3.95;;;18.90;98.60;;;;;;5099307;28;20027;-69
2022/06/06 11:38:46;;;;;;;8.45;4.07;;;18.90;98.40;;;;;;5125728;28;20022;-70
2022/06/06 11:41:39;;;;;;;6.47;3.95;;;18.90;98.60;;;;;;5087615;28;20032;-69
2022/06/06 11:44:44;;;;;;;4.93;3.28;;;19.00;98.10;;;;;;5083783;28;20051;-69
2022/06/06 11:47:32;;;;;;;16.52;4.13;;;19.10;97.50;;;;;;5078509;28;20334;-69
2022/06/06 11:50:30;;;;;;;3.67;3.38;;;19.20;98.60;;;;;;5104512;28;20039;-70
2022/06/06 11:53:35;;;;;;;6.13;3.83;;;19.50;97.10;;;;;;5104092;28;20024;-70
2022/06/06 11:56:41;;;;;;;9.32;3.30;;;19.60;97.00;;;;;;5077721;28;20095;-69
2022/06/06 11:59:40;;;;;;;6.03;3.83;;;19.80;96.60;;;;;;5103994;28;20192;-70
2022/06/06 12:02:39;;;;;;;6.75;3.40;;;20.10;96.40;;;;;;5091242;28;20099;-69
2022/06/06 12:05:25;;;;;;;7.60;3.55;;;20.40;95.80;;;;;;5102300;28;20024;-69
2022/06/06 12:08:31;;;;;;;7.85;3.80;;;20.20;95.60;;;;;;5097106;28;20033;-70
2022/06/06 12:11:20;;;;;;;3.67;3.10;;;20.20;95.90;;;;;;5083484;28;20097;-67
2022/06/06 12:14:25;;;;;;;10.23;2.70;;;20.30;95.50;;;;;;5083756;28;20016;-70
2022/06/06 12:17:08;;;;;;;5.70;2.72;;;20.30;94.50;;;;;;5082876;28;20041;-71
2022/06/06 12:19:56;;;;;;;2.97;2.72;;;20.30;94.80;;;;;;5082835;28;20028;-70
2022/06/06 12:22:48;;;;;;;4.63;2.58;;;20.20;94.70;;;;;;5082146;28;20329;-71
2022/06/06 12:25:53;;;;;;;4.82;2.50;;;20.10;95.10;;;;;;5082339;28;20046;-70
2022/06/06 12:28:49;;;;;;;6.00;3.10;;;20.20;95.80;;;;;;5083038;28;20079;-72
2022/06/06 12:31:42;;;;;;;4.15;2.60;;;20.40;94.70;;;;;;5083422;28;20024;-69
2022/06/06 12:34:16;;;;;;;6.47;3.60;;;20.40;94.30;;;;;;5083752;28;20092;-69
2022/06/06 12:37:10;;;;;;;6.85;3.28;;;20.10;94.90;;;;;;5084383;28;20081;-68
2022/06/06 12:39:57;;;;;;;8.90;3.05;;;20.20;95.50;;;;;;5082356;28;20083;-69
2022/06/06 12:42:50;;;;;;;3.95;2.60;;;20.10;95.30;;;;;;5076408;28;20024;-69
2022/06/06 12:45:47;;;;;;;6.57;3.35;;;20.00;94.30;;;;;;5088504;28;20309;-68
2022/06/06 12:48:44;;;;;;;5.93;2.70;;;20.10;95.20;;;;;;5102259;28;20039;-69
2022/06/06 12:51:49;;;;;;;6.10;2.50;;;20.10;95.20;;;;;;5102916;28;20027;-68
2022/06/06 12:58:04;;;;;;;5.60;1.83;;;20.20;94.40;;;;;;5070938;28;20078;-68
2022/06/06 13:03:58;;;;;;;4.88;1.90;;;20.50;94.00;;;;;;5082142;28;20070;-67
2022/06/06 13:06:47;;;;;;;6.85;2.03;;;20.60;93.30;;;;;;5086278;28;20020;-68
2022/06/06 13:09:40;;;;;;;3.90;1.90;;;20.80;92.80;;;;;;5101231;28;20046;-68
2022/06/06 13:12:46;;;;;;;9.13;1.80;;;21.00;92.80;;;;;;5101337;28;20035;-68
2022/06/06 13:15:33;;;;;;;3.55;1.70;;;20.90;93.40;;;;;;5087004;28;20036;-69
2022/06/06 13:18:30;;;;;;;4.40;1.65;;;20.90;93.50;;;;;;5101794;28;20039;-68
2022/06/06 13:21:13;;;;;;;2.90;1.63;;;21.00;93.30;;;;;;5101628;28;20070;-68
2022/06/06 13:24:19;;;;;;;8.05;1.77;;;20.90;93.30;;;;;;5101620;28;20024;-70
2022/06/06 13:27:24;;;;;;;3.03;1.10;;;20.60;92.40;;;;;;5085456;28;20031;-70
2022/06/06 13:29:50;;;;;;;3.05;1.55;;;20.20;92.10;;;;;;5067768;28;20085;-69
2022/06/06 13:32:41;;;;;;;2.17;1.27;;;19.90;93.40;;;;;;5080871;28;20319;-68
2022/06/06 13:35:33;;;;;;;7.40;1.55;;;19.60;92.20;;;;;;5080822;28;20150;-67
2022/06/06 13:38:13;;;;;;;;;;;19.60;93.50;;;;;;5080583;28;20028;-69
2022/06/06 13:40:43;;;;;;;4.43;1.73;;;19.70;93.40;;;;;;5090086;28;19908;-71
2022/06/06 13:43:49;;;;;;;7.55;1.42;;;19.70;92.80;;;;;;5101217;28;20027;-69
2022/06/06 13:46:54;;;;;;;7.07;1.95;;;19.70;93.80;;;;;;5090101;28;20069;-71
2022/06/06 13:49:49;;;;;;;4.13;1.55;;;19.70;91.90;;;;;;5090122;28;20218;-71
2022/06/06 13:52:40;;;;;;;3.17;1.35;;;19.50;93.20;;;;;;5100794;28;20388;-69
2022/06/06 13:55:34;;;;;;;4.03;1.47;;;19.70;92.50;;;;;;5099519;28;20239;-70
2022/06/06 13:58:31;;;;;;;3.65;1.45;;;19.90;92.50;;;;;;5093081;28;20579;-70
2022/06/06 14:01:30;;;;;;;4.95;1.45;;;20.00;92.90;;;;;;5098904;28;20272;-69
2022/06/06 14:04:14;;;;;;;8.05;1.40;;;20.20;92.60;;;;;;5086690;28;20338;-73
2022/06/06 14:07:20;;;;;;;4.88;1.30;;;20.60;92.20;;;;;;5102223;28;20024;-69
2022/06/06 14:09:47;;;;;;;8.07;1.52;;;21.00;91.40;;;;;;5064578;28;20040;-71
2022/06/06 14:12:39;;;;;;;3.88;1.27;;;21.30;90.90;;;;;;5078247;28;20087;-71
2022/06/06 14:15:09;;;;;;;3.80;1.17;;;21.40;89.60;;;;;;5079596;28;20028;-70
2022/06/06 14:17:38;;;;;;;1.70;1.00;;;21.40;87.80;;;;;;5079440;28;20316;-71
2022/06/06 14:20:22;;;;;;;1.73;0.73;;;21.20;87.80;;;;;;5065295;28;20095;-72
2022/06/06 14:22:49;;;;;;;3.30;0.85;;;21.30;87.90;;;;;;5083908;28;20032;-72
2022/06/06 14:25:15;;;;;;;2.70;0.65;;;21.70;86.00;;;;;;5083211;28;20359;-75
2022/06/06 14:27:42;;;;;;;2.83;0.70;;;21.70;83.60;;;;;;5119114;28;20144;-72
2022/06/06 14:30:13;;;;;;;3.17;0.80;;;21.60;84.60;;;;;;5107770;28;20027;-71
2022/06/06 14:32:54;;;;;;;3.00;1.05;;;21.70;83.40;;;;;;5072404;28;20023;-71
2022/06/06 14:35:40;;;;;;;2.83;0.93;;;21.60;83.70;;;;;;5105050;28;20063;-73
2022/06/06 14:38:24;;;;;;;1.98;1.02;;;21.50;86.30;;;;;;5105605;28;20135;-68
2022/06/06 14:40:55;;;;;;;1.42;1.00;;;21.60;84.90;;;;;;5072551;28;20199;-70
2022/06/06 14:43:23;;;;;;;5.07;1.20;;;21.60;83.70;;;;;;5106669;28;20027;-70
2022/06/06 14:45:54;;;;;;;1.20;0.80;;;21.70;86.10;;;;;;5106625;28;20072;-73
2022/06/06 14:48:39;;;;;;;1.30;0.93;;;21.80;83.80;;;;;;5105696;28;20207;-70